Eglin Air Force Base
KVPS : now visible

Airfield :











YOU CAN JOIN US ON...

 
LOGIN :

Register | Disclaimer

   EN    FR    IT 

 









Legend :    VFR   Marginal VFR   IFR   Intensive IFR   Very Intensive IFR
Visi :
Ceiling :
>= 8 km
>= 3000ft
5 to 8 km
1000 to 3000 ft
1500m to 5 km
500 to 1000 ft
800 to 1500m
200 to 500 ft
< 800m
< 200 ft
Symbols :   Thunderstorms  Fog  Heavy snow  Heavy precipitations  Wind > 20 kt






- Airport Elevation : 87 ft
- IATA code : VPS


KVPS - Eglin Air Force Base

CURRENT METAR :
  • 050657Z 33002KT 10SM CLR 26/22 A2994 RMK AO2A SLP144 T02560217 $

EXPIRED METARs :
  • 050556Z 26003KT 10SM FEW070 27/22 A2995 RMK AO2A SLP148 T02650217 10309 20265 403360241 58005 $
  • 050455Z 27003KT 10SM FEW070 28/22 A2997 RMK AO2A SLP155 T02760218 $

TAF TAF KVPS
Valid from the 05 at 01:00 until the 06 at 07:00 UTC


050100Z 0501/0607 25008KT 9999 FEW045 FEW200 QNH2990INS
BECMG 0506/0507 32006KT 9999 FEW040 QNH2994INS
BECMG 0515/0516 20012KT 9999 FEW045 QNH2992INS
BECMG 0520/0521 18012KT 9999 VCSH SCT050 QNH2988INS
BECMG 0523/0524 24008KT 9999 NSW FEW040 FEW200 QNH2996INS TX33/0519Z TN25/0511Z
KZJX FIR / North America



MET'MAP, your aeronautical weather chart ! - Copyright ORBIFLY December 2007 - Disclaimer

ORBIFLY MET'MAP TEAM :

Programming & Development : Alexandra Zaïnal
Concept & original design : Baudouin d'Aumeries
Assistance for programming : Marc-Olivier Méhu
Technical & hardware support : Manuel Goepfert

Contact : metmap@orbifly.com




SOURCES & CREDITS :

   NOAA       Earth
Advisory